Airport View

Enter AWOS ICAO identifier for current METAR.

ex. KFNL

KCNC 202255Z AUTO 00000KT 3SM BR OVC005 06/06 A2997 RMK AO2

20 Oct 2020 23:00

Frequency: 125.525

Phone: 641-774-5645

Other Area AWOS: KI75 - KOXV - KTVK - KPEA

TAF AMD KDSM 202122Z 2021/2118 10006KT 2SM -DZ BR OVC010 FM210300 24004KT P6SM BKN100 FM211100 33004KT P6SM BKN060